Weather observations for the past three days for
Halifax Stanfield International Airport
Imperial (Metric)
Date Time (adt) Wind (mph) Vis. (mi.) Weather Sky Cond. Temperature (ºF) Relative Humidity Wind Chill (°F) Heat Index (°F) Pressure Precipitation (in)
Air Dwpt 6 hour altimeter (in) sea level (mb) 1 hr 3 hr 6 hr
Max. Min.
02 16:00 W 8 G 18 15.00 A Few Clouds FEW045 FEW250 60.8 30.2 31% 29.89 1012.8
02 15:00 NW 13 G 20 15.00 A Few Clouds FEW040 60.8 33.8 36% 29.91 1013.4
02 14:00 NW 15 G 21 15.00 A Few Clouds FEW036 57.2 32 39% 29.92 1013.6
02 13:00 NW 10 G 20 15.00 A Few Clouds FEW032 55.4 35.6 47% 29.92 1013.5
02 12:00 NW 10 G 17 15.00 A Few Clouds FEW030 53.6 37.4 54% 29.92 1013.7
02 11:00 NW 12 G 18 15.00 A Few Clouds FEW027 50 39.2 67% 46 29.91 1013.5
02 10:00 NW 15 15.00 A Few Clouds FEW017 48.2 41 76% 43 29.91 1013.3
02 09:00 NW 12 G 17 15.00 Partly Cloudy SCT011 46.4 41 82% 42 29.89 1012.6
02 08:00 W 12 15.00 Mostly Cloudy BKN010 BKN018 44.6 41 87% 39 29.87 1012.1
02 07:00 NW 9 15.00 Mostly Cloudy FEW009 BKN012 42.8 41 93% 38 29.85 1011.4
02 06:00 W 12 15.00 Mostly Cloudy BKN015 42.8 41 93% 37 29.82 1010.3
02 05:00 NW 6 15.00 Partly Cloudy SCT020 41 41 100% 38 29.81 1010.0
02 04:00 W 9 15.00 A Few Clouds FEW010 FEW200 42.8 42.8 100% 38 29.79 1009.4
02 03:00 W 9 15.00 Partly Cloudy FEW009 SCT050 44.6 44.6 100% 40 29.78 1008.8
02 02:00 W 7 15.00 A Few Clouds FEW011 FEW025 FEW200 44.6 44.6 100% 41 29.76 1008.4
02 01:00 W 9 15.00 Mostly Cloudy SCT018 BKN030 46.4 46.4 100% 42 29.75 1007.9
02 00:00 SW 7 0.25 Fog BKN027 46.4 46.4 100% 43 29.74 1007.6
01 23:00 SW 3 0.50 Fog BKN020 46.4 46.4 100% 29.73 1007.4
01 22:00 Vrbl 2 0.38 Fog BKN020 46.4 46.4 100% 29.72 1007.0
01 21:00 W 3 0.25 Light Drizzle Fog VV003 46.4 46.4 100% 29.69 1005.9
01 20:00 Calm 0.25 Fog VV003 46.4 46.4 100% 29.66 1005.0
01 19:00 S 3 1.25 Light Rain Fog/Mist OVC003 46.4 46.4 100% 29.66 1004.8
01 17:00 SE 14 4.00 Rain Fog/Mist BKN004 OVC050 46.4 46.4 100% 41 29.64 1004.3
01 16:00 SE 15 2.50 Rain Fog/Mist OVC005 46.4 46.4 100% 41 29.66 1004.9
01 15:00 S 12 3.00 Rain Fog/Mist OVC008 48.2 48.2 100% 44 29.68 1005.7
01 14:00 SE 12 G 17 1.00 Rain Fog/Mist OVC004 48.2 48.2 100% 44 29.69 1006.0
01 13:00 SE 17 G 23 0.13 Light Rain Fog VV002 50 50 100% 45 29.7 1006.2
01 12:00 SE 15 G 25 1.00 Light Rain Fog/Mist OVC003 50 50 100% 45 29.7 1006.4
01 11:00 SE 17 G 29 2.00 Rain Fog/Mist OVC004 48.2 48.2 100% 42 29.72 1007.0
01 10:00 SE 21 G 30 0.25 Light Rain Fog and Breezy VV002 50 50 100% 44 29.73 1007.3
01 09:00 SE 23 G 31 0.13 Fog and Breezy VV002 50 50 100% 44 29.73 1007.4
01 08:00 SE 23 G 31 0.75 Light Rain Fog/Mist and Breezy OVC002 48.2 48.2 100% 41 29.75 1007.8
01 07:00 SE 18 G 28 1.00 Light Drizzle Fog/Mist OVC002 46.4 46.4 100% 40 29.75 1008.1
01 06:00 SE 17 G 24 1.00 Light Rain Fog/Mist OVC003 44.6 44.6 100% 38 29.77 1008.6
01 05:00 SE 22 0.25 Light Rain Fog and Breezy VV003 44.6 44.6 100% 37 29.8 1009.6
01 04:00 SE 15 G 24 0.25 Fog VV002 44.6 44.6 100% 38 29.8 1009.7
01 03:00 SE 17 G 25 0.13 Fog VV002 44.6 44.6 100% 38 29.81 1009.9
01 02:00 SE 20 G 25 0.13 Fog VV002 44.6 44.6 100% 37 29.83 1010.7
01 01:00 SE 18 G 30 0.13 Fog VV002 44.6 44.6 100% 37 29.86 1011.8
01 00:00 SE 15 G 24 0.25 Fog VV002 44.6 44.6 100% 38 29.88 1012.3
30 23:00 SE 16 0.25 Fog VV002 44.6 44.6 100% 38 29.9 1013.0
30 22:00 SE 14 G 20 0.25 Fog VV002 42.8 42.8 100% 36 29.92 1013.9
30 21:00 SE 18 G 24 0.50 Fog VV003 42.8 41 93% 35 29.92 1013.8
30 20:00 E 15 15.00 Overcast OVC004 42.8 42.8 100% 36 29.92 1013.9
30 19:00 SE 16 G 23 15.00 Overcast OVC005 44.6 42.8 93% 38 29.93 1014.1
30 18:00 SE 16 G 25 12.00 Light Drizzle OVC006 44.6 42.8 93% 38 29.94 1014.6
30 17:00 SE 17 15.00 Overcast OVC008 46.4 42.8 87% 40 29.95 1014.7
30 16:00 SE 15 G 22 8.00 Overcast OVC007 46.4 42.8 87% 41 29.96 1015.4
30 15:00 SE 18 15.00 Mostly Cloudy BKN013 48.2 41 76% 42 29.98 1015.7
30 14:00 SE 15 G 25 15.00 Overcast OVC015 50 41 71% 45 29.99 1016.2
30 13:00 SE 17 G 24 15.00 Mostly Cloudy BKN015 BKN140 48.2 41 76% 42 30.01 1016.8
30 12:00 SE 17 15.00 Overcast OVC009 46.4 41 82% 40 30.01 1016.9
30 11:00 SE 14 G 20 15.00 Overcast OVC007 42.8 39.2 87% 36 30.03 1017.6
30 10:00 SE 17 12.00 Overcast OVC008 42.8 39.2 87% 35 30.03 1017.6
30 09:00 SE 16 8.00 Overcast OVC005 39.2 37.4 93% 31 30.04 1017.8
30 08:00 SE 14 8.00 Overcast FEW004 BKN015 OVC100 39.2 37.4 93% 32 30.03 1017.6
30 07:00 SE 13 5.00 Fog/Mist OVC004 37.4 37.4 100% 30 30.03 1017.5
30 06:00 SE 13 4.00 Fog/Mist OVC004 37.4 35.6 93% 30 30.02 1017.4
30 05:00 SE 9 10.00 Overcast OVC005 37.4 35.6 93% 31 30.03 1017.7
30 04:00 E 8 8.00 Overcast OVC004 37.4 35.6 93% 32 30.03 1017.6
30 03:00 SE 10 10.00 Overcast OVC004 35.6 35.6 100% 29 30.06 1018.5
30 02:00 SE 12 6.00 Fog/Mist OVC004 35.6 33.8 93% 28 30.07 1019.0
30 01:00 SE 13 10.00 Overcast OVC006 35.6 33.8 93% 28 30.09 1019.7
30 00:00 SE 8 12.00 Overcast OVC007 35.6 33.8 93% 30 30.11 1020.3
29 23:00 SE 10 10.00 Overcast OVC009 37.4 33.8 87% 31 30.11 1020.4
29 22:00 E 10 15.00 Overcast FEW010 OVC110 37.4 33.8 87% 31 30.12 1020.7
29 21:00 SE 12 12.00 Overcast BKN018 OVC100 39.2 33.8 81% 33 30.12 1020.6
29 20:00 SE 12 12.00 Overcast OVC014 39.2 33.8 81% 33 30.11 1020.2
29 19:00 SE 15 15.00 Overcast OVC015 41 35.6 81% 34 30.1 1019.9
29 18:00 SE 18 15.00 Overcast OVC014 42.8 35.6 76% 35 30.09 1019.7
29 17:00 SE 15 15.00 Overcast SCT019 BKN150 OVC240 44.6 35.6 71% 38 30.1 1020.0
Date Time (adt) Wind (mph) Vis. (mi.) Weather Sky Cond. Air Dwpt Max. Min. Relative Humidity Wind Chill (°F) Heat Index (°F) altimeter (in) sea level (mb) 1 hr 3 hr 6 hr
6 hour
Temperature (ºF) Pressure Precipitation (in)